AAL340 KCMH-CYYZ
Flight info
| Callsign | AAL340 |
|---|---|
| Flight time | N/A |
| Altitude | 30000 |
| Route | RDBUV DCT NOWZU DCT JUSEP DCT DJB DCT QWERI NUBER6 |
| Aircraft | A20N/M-SDE2E3FGHIRWXY/LB1 |
Departure
| Time | 2026-05-07 22:14 |
|---|---|
| Airport | John Glenn Columbus International Airport (KCMH) |
Arrival
| Time | N/A |
|---|---|
| Airport | Toronto Pearson International Airport (CYYZ) |
| Time | Latitude | Longitude | Altitude | Speed | Heading |
|---|---|---|---|---|---|
| 2026-05-07 21:57 | 39.99749 | -82.88153 | 821 ft | 0 kts | 6° |
| 2026-05-07 22:02 | 39.99745 | -82.88154 | 812 ft | 0 kts | 6° |
| 2026-05-07 22:04 | 39.99732 | -82.88155 | 821 ft | 2 kts | 4° |
| 2026-05-07 22:04 | 39.99715 | -82.88156 | 817 ft | 2 kts | 360° |
| 2026-05-07 22:05 | 39.99699 | -82.88155 | 820 ft | 2 kts | 353° |
| 2026-05-07 22:05 | 39.99682 | -82.88153 | 819 ft | 2 kts | 5° |
| 2026-05-07 22:05 | 39.99666 | -82.88158 | 819 ft | 2 kts | 22° |
| 2026-05-07 22:05 | 39.99651 | -82.88167 | 821 ft | 2 kts | 29° |
| 2026-05-07 22:06 | 39.99638 | -82.88178 | 819 ft | 2 kts | 35° |
| 2026-05-07 22:06 | 39.99626 | -82.88191 | 820 ft | 2 kts | 45° |
| 2026-05-07 22:06 | 39.99617 | -82.88204 | 818 ft | 2 kts | 63° |
| 2026-05-07 22:06 | 39.99615 | -82.88211 | 817 ft | 0 kts | 82° |
| 2026-05-07 22:07 | 39.99616 | -82.88210 | 817 ft | 0 kts | 81° |
| 2026-05-07 22:09 | 39.99616 | -82.88205 | 819 ft | 4 kts | 80° |
| 2026-05-07 22:10 | 39.99621 | -82.88172 | 820 ft | 0 kts | 80° |
| 2026-05-07 22:10 | 39.99621 | -82.88142 | 820 ft | 16 kts | 95° |
| 2026-05-07 22:10 | 39.99591 | -82.88022 | 819 ft | 1 kts | 111° |
| 2026-05-07 22:11 | 39.99573 | -82.87957 | 823 ft | 1 kts | 129° |
| 2026-05-07 22:11 | 39.99563 | -82.87942 | 823 ft | 9 kts | 133° |
| 2026-05-07 22:11 | 39.99507 | -82.87882 | 825 ft | 11 kts | 131° |
| 2026-05-07 22:11 | 39.99428 | -82.87794 | 825 ft | 17 kts | 163° |
| 2026-05-07 22:12 | 39.99361 | -82.87682 | 824 ft | 18 kts | 99° |
| 2026-05-07 22:12 | 39.99346 | -82.87508 | 824 ft | 6 kts | 120° |
| 2026-05-07 22:12 | 39.99340 | -82.87481 | 824 ft | 15 kts | 103° |
| 2026-05-07 22:12 | 39.99311 | -82.87340 | 822 ft | 13 kts | 140° |
| 2026-05-07 22:13 | 39.99221 | -82.87332 | 822 ft | 13 kts | 187° |
| 2026-05-07 22:13 | 39.99172 | -82.87407 | 822 ft | 11 kts | 261° |
| 2026-05-07 22:13 | 39.99178 | -82.87619 | 820 ft | 65 kts | 277° |
| 2026-05-07 22:13 | 39.99240 | -82.88699 | 825 ft | 166 kts | 275° |
| 2026-05-07 22:14 | 39.99285 | -82.90386 | 1326 ft | 203 kts | 275° |
| 2026-05-07 22:14 | 39.99384 | -82.92382 | 2254 ft | 233 kts | 281° |
| 2026-05-07 22:14 | 39.99778 | -82.94527 | 3568 ft | 260 kts | 290° |
| 2026-05-07 22:14 | 40.00639 | -82.96822 | 4290 ft | 305 kts | 301° |
| 2026-05-07 22:15 | 40.01859 | -82.99328 | 4704 ft | 350 kts | 303° |
| 2026-05-07 22:15 | 40.03205 | -83.02067 | 5875 ft | 364 kts | 303° |
| 2026-05-07 22:15 | 40.04594 | -83.04880 | 6624 ft | 387 kts | 303° |
| 2026-05-07 22:15 | 40.06077 | -83.07885 | 7664 ft | 384 kts | 302° |
| 2026-05-07 22:16 | 40.07501 | -83.10767 | 9094 ft | 362 kts | 302° |
| 2026-05-07 22:16 | 40.08785 | -83.13330 | 9712 ft | 316 kts | 302° |
| 2026-05-07 22:16 | 40.09967 | -83.15601 | 9787 ft | 289 kts | 303° |
| 2026-05-07 22:16 | 40.11056 | -83.17682 | 9810 ft | 266 kts | 303° |
| 2026-05-07 22:17 | 40.12060 | -83.19565 | 9835 ft | 246 kts | 307° |
| 2026-05-07 22:17 | 40.13232 | -83.20953 | 10237 ft | 213 kts | 322° |
| 2026-05-07 22:17 | 40.14531 | -83.21685 | 10499 ft | 193 kts | 342° |
| 2026-05-07 22:17 | 40.15805 | -83.21693 | 10649 ft | 181 kts | 4° |
| 2026-05-07 22:18 | 40.17007 | -83.21030 | 10534 ft | 216 kts | 28° |
| 2026-05-07 22:18 | 40.19258 | -83.17399 | 12077 ft | 299 kts | 53° |
| 2026-05-07 22:18 | 40.20389 | -83.14889 | 12654 ft | 341 kts | 57° |
| 2026-05-07 22:19 | 40.21555 | -83.11978 | 13143 ft | 382 kts | 59° |
| 2026-05-07 22:19 | 40.22842 | -83.08725 | 13330 ft | 426 kts | 59° |